createdAt,value
2019-01-25T00:00:42.704Z,79.73
2019-01-25T00:03:11.422Z,83.50
2019-01-25T00:05:40.147Z,91.73
2019-01-25T00:08:08.963Z,92.40
2019-01-25T00:10:37.722Z,93.93
2019-01-25T00:13:06.452Z,98.87
2019-01-25T00:15:35.215Z,94.40
2019-01-25T00:18:05.107Z,87.30
2019-01-25T00:20:33.851Z,98.20
2019-01-25T00:23:02.594Z,92.67
2019-01-25T00:25:31.329Z,101.33
2019-01-25T00:28:00.019Z,91.23
2019-01-25T00:30:28.755Z,95.93
2019-01-25T00:32:57.505Z,92.57
2019-01-25T00:35:26.261Z,96.63
2019-01-25T00:37:54.966Z,97.77
2019-01-25T00:40:23.936Z,89.20
2019-01-25T00:42:52.650Z,83.73
2019-01-25T00:45:21.351Z,99.47
2019-01-25T00:47:50.071Z,94.27
2019-01-25T00:50:19.242Z,93.03
2019-01-25T00:52:48.095Z,94.10
2019-01-25T00:55:16.895Z,94.90
2019-01-25T00:57:45.756Z,91.93
2019-01-25T01:00:18.359Z,94.47
2019-01-25T01:02:47.114Z,87.27
2019-01-25T01:05:16.086Z,97.27
2019-01-25T01:07:45.323Z,90.83
2019-01-25T01:10:14.453Z,88.13
2019-01-25T01:12:43.223Z,90.27
2019-01-25T01:15:12.687Z,84.77
2019-01-25T01:17:41.404Z,89.17
2019-01-25T01:20:11.367Z,85.67
2019-01-25T01:22:40.114Z,82.23
2019-01-25T01:25:09.323Z,83.47
2019-01-25T01:27:38.153Z,89.23
2019-01-25T01:30:07.627Z,81.47
2019-01-25T01:32:36.551Z,79.80
2019-01-25T01:35:06.069Z,86.70
2019-01-25T01:37:34.775Z,80.50
2019-01-25T01:40:04.788Z,80.63
2019-01-25T01:42:33.496Z,83.60
2019-01-25T01:45:02.188Z,79.73
2019-01-25T01:47:30.906Z,85.73
2019-01-25T01:49:59.595Z,86.00
2019-01-25T01:52:28.289Z,87.77
2019-01-25T01:54:57.002Z,85.00
2019-01-25T01:57:25.698Z,90.63
2019-01-25T01:59:54.454Z,88.60
2019-01-25T02:02:23.169Z,91.90
2019-01-25T02:04:51.867Z,96.97
2019-01-25T02:07:20.619Z,96.80
2019-01-25T02:09:49.320Z,88.60
2019-01-25T02:12:18.170Z,90.60
2019-01-25T02:14:46.886Z,92.23
2019-01-25T02:17:15.615Z,86.30
2019-01-25T02:19:44.377Z,87.87
2019-01-25T02:22:13.118Z,82.70
2019-01-25T02:24:41.821Z,87.57
2019-01-25T02:27:10.593Z,86.87
2019-01-25T02:29:39.313Z,83.83
2019-01-25T02:32:08.091Z,88.63
2019-01-25T02:34:38.419Z,86.77
2019-01-25T02:37:07.147Z,86.40
2019-01-25T02:39:35.883Z,87.27
2019-01-25T02:42:04.711Z,88.07
2019-01-25T02:44:33.691Z,82.57
2019-01-25T02:47:02.379Z,93.43
2019-01-25T02:49:31.084Z,88.53
2019-01-25T02:51:59.834Z,100.57
2019-01-25T02:54:28.543Z,92.20
2019-01-25T02:56:57.250Z,85.83
2019-01-25T02:59:25.948Z,100.73
2019-01-25T03:01:54.627Z,93.50
2019-01-25T03:04:23.349Z,83.67
2019-01-25T03:06:52.043Z,99.00
2019-01-25T03:09:20.796Z,96.47
2019-01-25T03:11:49.498Z,91.53
2019-01-25T03:14:18.190Z,90.33
2019-01-25T03:16:46.940Z,93.70
2019-01-25T03:19:15.630Z,92.57
2019-01-25T03:21:44.336Z,85.73
2019-01-25T03:24:13.058Z,92.23
2019-01-25T03:26:41.844Z,90.20
2019-01-25T03:29:10.564Z,91.90
2019-01-25T03:31:39.621Z,89.37
2019-01-25T03:34:08.409Z,92.57
2019-01-25T03:36:37.113Z,98.27
2019-01-25T03:39:07.665Z,86.77
2019-01-25T03:41:36.365Z,88.53
2019-01-25T03:44:05.518Z,91.03
2019-01-25T03:46:34.225Z,90.33
2019-01-25T03:49:02.923Z,93.90
2019-01-25T03:51:31.651Z,101.30
2019-01-25T03:54:00.348Z,96.10
2019-01-25T03:56:29.054Z,95.23
2019-01-25T03:58:57.781Z,92.73
2019-01-25T04:01:26.499Z,90.77
2019-01-25T04:03:55.302Z,94.27
2019-01-25T04:06:24.013Z,84.67
2019-01-25T04:08:54.079Z,96.40
2019-01-25T04:11:22.758Z,94.20
2019-01-25T04:13:51.495Z,94.60
2019-01-25T04:16:20.179Z,94.97
2019-01-25T04:18:48.919Z,89.90
2019-01-25T04:21:17.663Z,90.27
2019-01-25T04:23:46.785Z,90.40
2019-01-25T04:26:15.505Z,92.23
2019-01-25T04:28:44.290Z,90.17
2019-01-25T04:31:12.980Z,92.37
2019-01-25T04:33:41.668Z,83.23
2019-01-25T04:36:13.170Z,90.77
2019-01-25T04:38:41.924Z,93.03
2019-01-25T04:41:11.660Z,97.50
2019-01-25T04:43:40.734Z,88.17
2019-01-25T04:46:09.436Z,95.20
2019-01-25T04:48:38.370Z,91.87
2019-01-25T04:51:07.889Z,96.73
2019-01-25T04:53:37.130Z,99.07
2019-01-25T04:56:05.969Z,92.93
2019-01-25T04:58:34.667Z,90.00
2019-01-25T05:01:07.055Z,94.50
2019-01-25T05:03:35.886Z,93.20
2019-01-25T05:06:05.043Z,93.57
2019-01-25T05:08:33.778Z,90.60
2019-01-25T05:11:02.528Z,96.93
2019-01-25T05:13:31.778Z,99.87
2019-01-25T05:16:00.579Z,101.20
2019-01-25T05:18:29.399Z,98.70
2019-01-25T05:20:58.115Z,85.33
2019-01-25T05:23:26.846Z,108.12
2019-01-25T05:25:55.558Z,91.73
2019-01-25T05:28:24.343Z,89.17
2019-01-25T05:30:54.421Z,92.73
2019-01-25T05:33:23.160Z,88.90
2019-01-25T05:35:51.838Z,86.33
2019-01-25T05:38:20.571Z,88.93
2019-01-25T05:40:49.346Z,86.10
2019-01-25T05:43:18.051Z,84.07
2019-01-25T05:45:46.818Z,77.77
2019-01-25T05:48:15.496Z,84.27
2019-01-25T05:50:44.253Z,80.00
2019-01-25T05:53:12.978Z,76.30
2019-01-25T05:55:41.732Z,78.50
2019-01-25T05:58:10.777Z,78.07
2019-01-25T06:00:41.284Z,78.03
2019-01-25T06:03:11.119Z,80.53
2019-01-25T06:05:39.805Z,82.20
2019-01-25T06:08:31.207Z,75.20
2019-01-25T06:11:04.657Z,84.93
2019-01-25T06:13:33.405Z,72.80
2019-01-25T06:16:02.321Z,77.60
2019-01-25T06:18:31.095Z,81.10
2019-01-25T06:20:59.831Z,72.33
2019-01-25T06:23:28.594Z,79.27
2019-01-25T06:25:57.971Z,78.07
2019-01-25T06:28:26.759Z,75.17
2019-01-25T06:30:55.451Z,76.95
2019-01-25T06:33:24.220Z,71.57
2019-01-25T06:35:53.064Z,83.07
2019-01-25T06:38:21.792Z,73.33
2019-01-25T06:40:50.517Z,77.57
2019-01-25T06:43:19.528Z,78.27
2019-01-25T06:45:49.818Z,76.97
2019-01-25T06:48:18.734Z,75.13
2019-01-25T06:50:47.526Z,75.03
2019-01-25T06:53:16.350Z,85.63
2019-01-25T06:55:45.064Z,86.87
2019-01-25T07:01:30.712Z,73.33
2019-01-25T07:03:59.614Z,81.73
2019-01-25T07:06:28.346Z,94.63
2019-01-25T07:08:57.083Z,99.40
2019-01-25T07:11:25.787Z,97.40
2019-01-25T07:13:54.486Z,80.17
2019-01-25T07:16:23.217Z,79.67
2019-01-25T07:18:51.930Z,72.73
2019-01-25T07:21:20.618Z,76.13
2019-01-25T07:23:49.398Z,75.30
2019-01-25T07:26:18.078Z,77.30
2019-01-25T07:28:53.518Z,69.63
2019-01-25T07:31:22.271Z,72.67
2019-01-25T07:33:51.022Z,71.70
2019-01-25T07:36:19.796Z,72.83
2019-01-25T07:38:48.482Z,76.60
2019-01-25T07:41:17.215Z,68.80
2019-01-25T07:43:45.926Z,70.40
2019-01-25T07:46:14.645Z,68.97
2019-01-25T07:48:43.459Z,73.83
2019-01-25T07:51:12.324Z,72.47
2019-01-25T07:53:41.176Z,76.30
2019-01-25T07:56:10.211Z,75.33
2019-01-25T07:58:38.987Z,73.53
2019-01-25T08:01:07.695Z,72.87
2019-01-25T08:03:36.407Z,71.70
2019-01-25T08:06:05.114Z,71.90
2019-01-25T08:08:33.968Z,72.03
2019-01-25T08:11:02.729Z,72.13
2019-01-25T08:13:31.534Z,73.90
2019-01-25T08:16:00.350Z,68.50
2019-01-25T08:18:29.165Z,72.53
2019-01-25T08:20:57.981Z,74.13
2019-01-25T08:23:26.766Z,73.63
2019-01-25T08:25:55.521Z,76.53
2019-01-25T08:28:24.214Z,71.57
2019-01-25T08:30:52.932Z,74.97
2019-01-25T08:33:21.886Z,71.80
2019-01-25T08:35:50.855Z,65.40
2019-01-25T08:38:19.603Z,65.70
2019-01-25T08:40:48.379Z,75.60
2019-01-25T08:43:17.101Z,74.27
2019-01-25T08:45:45.958Z,70.70
2019-01-25T08:48:14.678Z,74.20
2019-01-25T08:50:43.895Z,68.50
2019-01-25T08:53:12.898Z,71.03
2019-01-25T08:55:41.767Z,69.67
2019-01-25T08:58:10.555Z,70.83
2019-01-25T09:00:39.276Z,79.03
2019-01-25T09:03:08.257Z,66.63
2019-01-25T09:05:37.015Z,68.87
2019-01-25T09:08:05.755Z,65.57
2019-01-25T09:10:34.459Z,73.27
2019-01-25T09:13:03.216Z,65.87
2019-01-25T09:15:32.053Z,69.13
2019-01-25T09:18:00.768Z,70.43
2019-01-25T09:20:29.546Z,72.80
2019-01-25T09:22:58.258Z,66.20
2019-01-25T09:25:27.015Z,65.30
2019-01-25T09:27:55.693Z,62.17
2019-01-25T09:30:24.455Z,70.47
2019-01-25T09:32:53.182Z,62.07
2019-01-25T09:35:21.892Z,67.57
2019-01-25T09:37:51.157Z,63.10
2019-01-25T09:40:22.119Z,66.97
2019-01-25T09:42:51.241Z,62.03
2019-01-25T09:45:20.079Z,65.77
2019-01-25T09:47:48.820Z,68.70
2019-01-25T09:50:17.860Z,63.93
2019-01-25T09:52:46.608Z,61.40
2019-01-25T09:55:16.474Z,69.23
2019-01-25T09:57:45.210Z,64.50
2019-01-25T10:00:16.526Z,69.63
2019-01-25T10:02:45.259Z,70.07
2019-01-25T10:05:13.986Z,62.73
2019-01-25T10:07:42.725Z,65.77
2019-01-25T10:10:11.546Z,61.57
2019-01-25T10:12:43.382Z,70.40
2019-01-25T10:15:12.047Z,66.67
2019-01-25T10:17:40.768Z,59.23
2019-01-25T10:20:09.982Z,65.40
2019-01-25T10:22:38.711Z,66.00
2019-01-25T10:25:07.936Z,66.93
2019-01-25T10:27:36.708Z,66.77
2019-01-25T10:30:07.115Z,69.20
2019-01-25T10:32:35.835Z,65.07
2019-01-25T10:35:04.961Z,64.97
2019-01-25T10:37:35.095Z,66.83
2019-01-25T10:40:04.500Z,67.87
2019-01-25T10:42:33.235Z,68.00
2019-01-25T10:45:04.465Z,67.23
2019-01-25T10:47:32.497Z,76.25
2019-01-25T10:50:01.271Z,68.23
2019-01-25T10:52:29.975Z,67.67
2019-01-25T10:54:58.757Z,65.77
2019-01-25T10:57:27.531Z,64.37
2019-01-25T10:59:56.279Z,74.37
2019-01-25T11:02:24.997Z,69.13
2019-01-25T11:04:53.726Z,65.03
2019-01-25T11:07:22.499Z,66.33
2019-01-25T11:09:51.287Z,77.60
2019-01-25T11:12:20.099Z,63.07
2019-01-25T11:14:48.921Z,67.43
2019-01-25T11:17:17.634Z,63.47
2019-01-25T11:19:46.409Z,67.03
2019-01-25T11:22:15.246Z,58.03
2019-01-25T11:24:43.955Z,59.60
2019-01-25T11:27:12.683Z,64.03
2019-01-25T11:29:41.454Z,60.83
2019-01-25T11:32:10.220Z,56.73
2019-01-25T11:34:38.931Z,67.47
2019-01-25T11:37:07.743Z,58.87
2019-01-25T11:39:36.506Z,56.90
2019-01-25T11:42:05.218Z,54.97
2019-01-25T11:44:34.019Z,52.00
2019-01-25T11:47:02.781Z,56.00
2019-01-25T11:49:31.510Z,54.07
2019-01-25T11:52:25.002Z,52.47
2019-01-25T11:54:51.294Z,52.00
2019-01-25T11:57:20.851Z,55.57
2019-01-25T11:59:49.811Z,51.57
2019-01-25T12:02:21.001Z,48.57
2019-01-25T12:04:49.070Z,49.07
2019-01-25T12:07:17.790Z,47.63
2019-01-25T12:09:46.521Z,50.50
2019-01-25T12:12:15.353Z,48.03
2019-01-25T12:14:44.067Z,45.10
2019-01-25T12:17:12.780Z,46.77
2019-01-25T12:19:41.536Z,53.13
2019-01-25T12:22:10.249Z,61.57
2019-01-25T12:24:38.988Z,56.63
2019-01-25T12:27:07.727Z,54.40
2019-01-25T12:29:36.490Z,45.73
2019-01-25T12:32:05.245Z,31.90
2019-01-25T12:34:34.067Z,25.13
2019-01-25T12:37:04.679Z,19.50
2019-01-25T12:39:33.258Z,16.87
2019-01-25T12:42:02.058Z,16.83
2019-01-25T12:44:30.795Z,16.73
2019-01-25T12:46:59.494Z,14.53
2019-01-25T12:49:28.241Z,18.97
2019-01-25T12:52:01.590Z,18.07
2019-01-25T12:54:30.306Z,12.07
2019-01-25T12:56:59.051Z,15.30
2019-01-25T12:59:27.759Z,16.60
2019-01-25T13:01:56.452Z,13.83
2019-01-25T13:04:25.618Z,13.93
2019-01-25T13:06:54.389Z,10.97
2019-01-25T13:09:23.118Z,12.97
2019-01-25T13:11:51.857Z,16.23
2019-01-25T13:14:20.684Z,13.23
2019-01-25T13:16:50.783Z,9.33
2019-01-25T13:19:19.668Z,15.70
2019-01-25T13:21:48.462Z,10.57
2019-01-25T13:24:17.209Z,14.23
2019-01-25T13:26:45.942Z,14.00
2019-01-25T13:29:14.842Z,14.00
2019-01-25T13:31:43.664Z,15.27
2019-01-25T13:34:12.454Z,14.47
2019-01-25T13:36:41.248Z,13.17
2019-01-25T13:39:10.303Z,16.00
2019-01-25T13:41:39.036Z,15.30
2019-01-25T13:44:07.775Z,10.53
2019-01-25T13:46:36.609Z,10.47
2019-01-25T13:49:05.430Z,11.03
2019-01-25T13:51:34.143Z,10.10
2019-01-25T13:54:02.871Z,9.03
2019-01-25T13:56:31.587Z,8.03
2019-01-25T13:59:00.547Z,11.17
2019-01-25T14:01:34.616Z,7.77
2019-01-25T14:03:59.723Z,7.07
2019-01-25T14:06:28.493Z,6.97
2019-01-25T14:08:57.259Z,6.90
2019-01-25T14:11:25.987Z,6.20
2019-01-25T14:13:54.753Z,8.50
2019-01-25T14:16:23.524Z,7.53
2019-01-25T14:18:52.351Z,6.97
2019-01-25T14:21:21.082Z,7.90
2019-01-25T14:23:49.876Z,6.57
2019-01-25T14:26:18.647Z,6.83
2019-01-25T14:28:47.492Z,9.00
2019-01-25T14:31:16.304Z,7.17
2019-01-25T14:33:45.028Z,7.13
2019-01-25T14:36:13.822Z,8.10
2019-01-25T14:38:42.590Z,12.30
2019-01-25T14:41:11.403Z,10.60
2019-01-25T14:43:40.093Z,8.57
2019-01-25T14:46:08.816Z,8.73
2019-01-25T14:48:38.319Z,10.20
2019-01-25T14:51:07.226Z,10.37
2019-01-25T14:53:35.995Z,8.90
2019-01-25T14:56:04.730Z,10.57
2019-01-25T14:58:33.499Z,10.83
2019-01-25T15:01:02.215Z,12.40
2019-01-25T15:03:30.967Z,12.77
2019-01-25T15:05:59.647Z,10.47
2019-01-25T15:08:28.481Z,10.57
2019-01-25T15:10:57.193Z,11.03
2019-01-25T15:13:26.001Z,11.77
2019-01-25T15:15:54.804Z,13.57
2019-01-25T15:18:24.523Z,34.47
2019-01-25T15:20:53.312Z,9.07
2019-01-25T15:23:22.127Z,11.93
2019-01-25T15:25:50.958Z,10.27
2019-01-25T15:28:19.693Z,11.13
2019-01-25T15:30:48.436Z,10.20
2019-01-25T15:33:17.218Z,12.27
2019-01-25T15:35:45.970Z,11.33
2019-01-25T15:38:14.707Z,10.73
2019-01-25T15:40:43.785Z,12.13
2019-01-25T15:43:12.625Z,10.50
2019-01-25T15:45:41.507Z,12.27
2019-01-25T15:48:10.244Z,13.17
2019-01-25T15:50:39.050Z,11.53
2019-01-25T15:53:07.780Z,10.37
2019-01-25T15:55:36.822Z,11.60
2019-01-25T15:58:05.543Z,11.73
2019-01-25T16:00:34.434Z,11.23
2019-01-25T16:03:03.195Z,13.43
2019-01-25T16:05:31.913Z,13.73
2019-01-25T16:08:00.721Z,13.97
2019-01-25T16:10:29.584Z,14.03
2019-01-25T16:12:58.419Z,12.53
2019-01-25T16:15:28.339Z,14.07
2019-01-25T16:17:57.080Z,14.30
2019-01-25T16:20:25.831Z,13.87
2019-01-25T16:22:54.735Z,13.90
2019-01-25T16:25:30.555Z,19.13
2019-01-25T16:28:03.437Z,13.80
2019-01-25T16:30:33.416Z,16.27
2019-01-25T16:33:02.289Z,23.03
2019-01-25T16:35:31.078Z,21.43
2019-01-25T16:37:59.903Z,16.17
2019-01-25T16:40:28.857Z,17.67
2019-01-25T16:42:57.595Z,16.70
2019-01-25T16:45:34.037Z,15.93
2019-01-25T16:48:02.820Z,16.00
2019-01-25T16:50:31.549Z,16.40
2019-01-25T16:53:00.343Z,17.63
2019-01-25T16:55:30.184Z,19.30
2019-01-25T16:57:59.669Z,18.50
2019-01-25T17:00:29.683Z,18.07
2019-01-25T17:02:58.506Z,19.03
2019-01-25T17:05:27.239Z,17.73
2019-01-25T17:07:56.019Z,18.57
2019-01-25T17:10:24.763Z,18.90
2019-01-25T17:12:53.499Z,18.80
2019-01-25T17:15:22.474Z,18.63
2019-01-25T17:17:51.261Z,18.87
2019-01-25T17:20:41.216Z,18.83
2019-01-25T17:23:10.070Z,18.93
2019-01-25T17:25:38.927Z,20.30
2019-01-25T17:28:08.490Z,20.65
2019-01-25T17:30:37.800Z,18.70
2019-01-25T17:33:06.568Z,18.67
2019-01-25T17:35:35.419Z,20.27
2019-01-25T17:38:04.855Z,18.60
2019-01-25T17:40:34.958Z,21.13
2019-01-25T17:43:04.010Z,19.00
2019-01-25T17:45:32.829Z,17.63
2019-01-25T17:48:01.628Z,17.43
2019-01-25T17:50:30.433Z,19.43
2019-01-25T17:52:59.189Z,17.73
2019-01-25T17:55:27.930Z,19.97
2019-01-25T17:57:56.709Z,19.87
2019-01-25T18:00:31.522Z,17.03
2019-01-25T18:03:00.332Z,18.70
2019-01-25T18:05:29.121Z,16.73
2019-01-25T18:07:57.866Z,17.40
2019-01-25T18:10:26.615Z,17.60
2019-01-25T18:12:55.337Z,17.57
2019-01-25T18:15:24.080Z,18.47
2019-01-25T18:17:53.056Z,20.10
2019-01-25T18:20:21.822Z,17.13
2019-01-25T18:22:50.610Z,18.30
2019-01-25T18:25:24.305Z,18.10
2019-01-25T18:27:54.937Z,17.07
2019-01-25T18:30:26.798Z,16.97
2019-01-25T18:32:55.547Z,17.40
2019-01-25T18:35:24.352Z,18.87
2019-01-25T18:37:54.735Z,17.90
2019-01-25T18:40:23.611Z,16.17
2019-01-25T18:42:52.340Z,17.27
2019-01-25T18:45:21.113Z,17.13
2019-01-25T18:47:49.910Z,18.23
2019-01-25T18:50:18.711Z,16.70
2019-01-25T18:52:47.601Z,18.37
2019-01-25T18:55:17.412Z,19.50
2019-01-25T18:57:46.198Z,18.23
2019-01-25T19:00:16.722Z,18.37
2019-01-25T19:02:45.985Z,17.23
2019-01-25T19:05:15.157Z,15.47
2019-01-25T19:07:43.930Z,16.77
2019-01-25T19:10:14.390Z,15.57
2019-01-25T19:12:43.174Z,17.63
2019-01-25T19:15:12.888Z,18.00
2019-01-25T19:17:41.639Z,17.33
2019-01-25T19:20:11.236Z,16.00
2019-01-25T19:22:40.065Z,15.40
2019-01-25T19:25:08.911Z,14.83
2019-01-25T19:27:37.669Z,16.37
2019-01-25T19:30:08.599Z,15.93
2019-01-25T19:32:37.410Z,15.07
2019-01-25T19:35:07.004Z,16.40
2019-01-25T19:37:35.778Z,18.70
2019-01-25T19:40:05.556Z,18.43
2019-01-25T19:42:34.340Z,15.97
2019-01-25T19:45:03.096Z,15.67
2019-01-25T19:47:31.877Z,16.03
2019-01-25T19:50:00.589Z,17.63
2019-01-25T19:52:29.362Z,16.20
2019-01-25T19:54:58.146Z,16.57
2019-01-25T19:57:26.986Z,16.27
2019-01-25T19:59:55.768Z,15.47
2019-01-25T20:02:24.566Z,14.03
2019-01-25T20:04:53.393Z,14.47
2019-01-25T20:07:22.261Z,13.93
2019-01-25T20:09:51.067Z,15.87
2019-01-25T20:12:19.851Z,15.23
2019-01-25T20:14:48.650Z,14.73
2019-01-25T20:17:17.529Z,16.00
2019-01-25T20:19:46.361Z,13.87
2019-01-25T20:22:15.227Z,15.83
2019-01-25T20:24:44.097Z,14.03
2019-01-25T20:27:12.802Z,13.47
2019-01-25T20:29:41.618Z,17.20
2019-01-25T20:32:10.363Z,14.10
2019-01-25T20:34:39.150Z,15.13
2019-01-25T20:37:07.997Z,15.67
2019-01-25T20:39:36.805Z,15.27
2019-01-25T20:42:05.647Z,20.43
2019-01-25T20:44:34.679Z,16.97
2019-01-25T20:47:03.469Z,17.97
2019-01-25T20:49:35.660Z,21.47
2019-01-25T20:52:04.512Z,22.17
2019-01-25T20:54:33.252Z,24.47
2019-01-25T20:57:03.926Z,24.20
2019-01-25T20:59:32.690Z,19.97
2019-01-25T21:02:01.455Z,20.70
2019-01-25T21:04:30.308Z,17.97
2019-01-25T21:07:01.670Z,18.47
2019-01-25T21:09:30.404Z,24.40
2019-01-25T21:11:59.186Z,18.53
2019-01-25T21:14:27.894Z,19.10
2019-01-25T21:16:56.674Z,17.57
2019-01-25T21:19:25.534Z,17.40
2019-01-25T21:21:54.364Z,15.90
2019-01-25T21:24:23.122Z,19.50
2019-01-25T21:26:52.089Z,21.00
2019-01-25T21:29:21.108Z,18.00
2019-01-25T21:31:49.886Z,18.63
2019-01-25T21:34:18.727Z,16.63
2019-01-25T21:36:47.459Z,21.33
2019-01-25T21:39:16.263Z,20.40
2019-01-25T21:41:45.036Z,18.03
2019-01-25T21:44:13.811Z,19.90
2019-01-25T21:46:42.544Z,23.10
2019-01-25T21:49:11.612Z,18.50
2019-01-25T21:51:40.402Z,19.97
2019-01-25T21:54:09.196Z,18.27
2019-01-25T21:56:37.993Z,20.83
2019-01-25T21:59:06.794Z,19.47
2019-01-25T22:01:35.545Z,17.90
2019-01-25T22:04:04.622Z,18.80
2019-01-25T22:06:33.423Z,15.80
2019-01-25T22:09:02.182Z,14.93
2019-01-25T22:11:30.964Z,15.90
2019-01-25T22:13:59.790Z,13.57
2019-01-25T22:16:28.533Z,12.07
2019-01-25T22:18:57.342Z,19.63
2019-01-25T22:21:26.089Z,19.33
2019-01-25T22:23:54.872Z,16.40
2019-01-25T22:26:23.937Z,13.80
2019-01-25T22:28:52.752Z,13.47
2019-01-25T22:31:21.511Z,15.73
2019-01-25T22:33:50.304Z,14.13
2019-01-25T22:36:19.551Z,14.37
2019-01-25T22:38:48.267Z,13.13
2019-01-25T22:41:17.008Z,9.37
2019-01-25T22:43:45.933Z,13.20
2019-01-25T22:46:14.741Z,10.90
2019-01-25T22:48:43.478Z,9.33
2019-01-25T22:51:12.243Z,6.73
2019-01-25T22:53:40.966Z,7.03
2019-01-25T22:56:09.778Z,7.00
2019-01-25T22:58:38.544Z,4.43
2019-01-25T23:01:19.283Z,5.97
2019-01-25T23:03:53.754Z,4.50
2019-01-25T23:06:33.309Z,8.27
2019-01-25T23:09:05.659Z,4.40
2019-01-25T23:11:34.385Z,4.37
2019-01-25T23:14:03.171Z,2.50
2019-01-25T23:16:31.994Z,2.63
2019-01-25T23:19:01.039Z,3.10
2019-01-25T23:21:29.790Z,2.13
2019-01-25T23:23:58.530Z,2.50
2019-01-25T23:26:27.349Z,2.07
2019-01-25T23:28:56.053Z,2.30
2019-01-25T23:31:24.902Z,2.13
2019-01-25T23:33:53.714Z,2.17
2019-01-25T23:36:23.098Z,2.20
2019-01-25T23:38:52.365Z,2.80
2019-01-25T23:41:22.111Z,3.37
2019-01-25T23:43:51.409Z,1.70
2019-01-25T23:46:20.687Z,2.13
2019-01-25T23:48:49.979Z,2.77
2019-01-25T23:51:23.011Z,2.00
2019-01-25T23:53:50.251Z,1.80
2019-01-25T23:56:19.507Z,1.70
2019-01-25T23:58:48.743Z,1.93
